Grants Pass, Oregon
Current Conditions -  °F | °C
As of 11:56 AM on Sunday 23 Nov 2014 (Local Time) from KSXT Reporting Station
Few Clouds Few Clouds  
Wind Chill: 39°   Ceiling: Unl
Heat Index: 39°   Visibility: 9mi
Dew Point: 37°   Wind: 3mph
Humidity: 93%   Direction: 140°SE
Pressure: 30.34"   Gusts: NA
Location:  42.44°N, 123.32°W
Report Text: KSXT 231956Z AUTO 14003KT 9SM FEW002 04/03 A3034 RMK AO2 SLP289 T00390028 $
Loading
Personal Weather Stations






























Interactive Weather Map New forecast layout! Learn more

10-Day Weather Forecast

Advertisements
Track Severe Weather on mobile